sensor_id;sensor_type;location;lat;lon;timestamp;pressure;altitude;pressure_sealevel;temperature;humidity
70198;BME280;57582;-34.876;138.628;2023-01-15T00:02:41;101269;;;24.08;37.43
70198;BME280;57582;-34.876;138.628;2023-01-15T00:05:40;101266;;;23.96;36.80
70198;BME280;57582;-34.876;138.628;2023-01-15T00:08:41;101269;;;23.99;36.74
70198;BME280;57582;-34.876;138.628;2023-01-15T00:11:41;101278;;;24.11;36.92
70198;BME280;57582;-34.876;138.628;2023-01-15T00:14:41;101276;;;24.20;36.39
70198;BME280;57582;-34.876;138.628;2023-01-15T00:17:40;101273;;;23.99;37.25
70198;BME280;57582;-34.876;138.628;2023-01-15T00:20:41;101286;;;24.03;37.56
70198;BME280;57582;-34.876;138.628;2023-01-15T00:23:40;101292;;;24.13;37.11
70198;BME280;57582;-34.876;138.628;2023-01-15T00:26:41;101289;;;24.26;36.66
70198;BME280;57582;-34.876;138.628;2023-01-15T00:29:40;101295;;;24.28;36.98
70198;BME280;57582;-34.876;138.628;2023-01-15T00:32:41;101287;;;24.15;35.95
70198;BME280;57582;-34.876;138.628;2023-01-15T00:35:40;101299;;;24.01;37.42
70198;BME280;57582;-34.876;138.628;2023-01-15T00:38:41;101293;;;23.87;35.94
70198;BME280;57582;-34.876;138.628;2023-01-15T00:41:40;101284;;;23.62;37.09
70198;BME280;57582;-34.876;138.628;2023-01-15T00:44:41;101277;;;23.64;37.59
70198;BME280;57582;-34.876;138.628;2023-01-15T00:47:41;101270;;;24.07;37.83
70198;BME280;57582;-34.876;138.628;2023-01-15T00:50:41;101277;;;24.27;36.54
70198;BME280;57582;-34.876;138.628;2023-01-15T00:53:40;101265;;;24.30;36.12
70198;BME280;57582;-34.876;138.628;2023-01-15T00:56:41;101254;;;24.04;35.21
70198;BME280;57582;-34.876;138.628;2023-01-15T00:59:40;101273;;;24.02;36.39
70198;BME280;57582;-34.876;138.628;2023-01-15T01:02:41;101277;;;24.17;36.65
70198;BME280;57582;-34.876;138.628;2023-01-15T01:05:40;101277;;;24.41;35.59
70198;BME280;57582;-34.876;138.628;2023-01-15T01:08:42;101260;;;24.57;35.63
70198;BME280;57582;-34.876;138.628;2023-01-15T01:11:41;101256;;;24.91;35.74
70198;BME280;57582;-34.876;138.628;2023-01-15T01:14:41;101259;;;24.66;34.57
70198;BME280;57582;-34.876;138.628;2023-01-15T01:17:41;101257;;;24.81;35.02
70198;BME280;57582;-34.876;138.628;2023-01-15T01:20:41;101260;;;24.95;34.16
70198;BME280;57582;-34.876;138.628;2023-01-15T01:23:40;101241;;;25.03;33.83
70198;BME280;57582;-34.876;138.628;2023-01-15T01:26:41;101240;;;25.04;34.86
70198;BME280;57582;-34.876;138.628;2023-01-15T01:29:41;101246;;;25.38;34.31
70198;BME280;57582;-34.876;138.628;2023-01-15T01:32:43;101243;;;25.74;33.44
70198;BME280;57582;-34.876;138.628;2023-01-15T01:35:46;101234;;;26.04;33.08
70198;BME280;57582;-34.876;138.628;2023-01-15T01:38:41;101232;;;26.26;32.64
70198;BME280;57582;-34.876;138.628;2023-01-15T01:41:41;101230;;;26.52;31.16
70198;BME280;57582;-34.876;138.628;2023-01-15T01:47:41;101227;;;26.20;32.05
70198;BME280;57582;-34.876;138.628;2023-01-15T01:50:41;101227;;;26.25;31.90
70198;BME280;57582;-34.876;138.628;2023-01-15T01:53:41;101218;;;26.45;33.31
70198;BME280;57582;-34.876;138.628;2023-01-15T01:56:41;101214;;;26.46;31.66
70198;BME280;57582;-34.876;138.628;2023-01-15T01:59:41;101211;;;26.65;30.65
70198;BME280;57582;-34.876;138.628;2023-01-15T02:02:42;101204;;;26.76;30.25
70198;BME280;57582;-34.876;138.628;2023-01-15T02:05:43;101199;;;26.73;30.78
70198;BME280;57582;-34.876;138.628;2023-01-15T02:08:41;101196;;;26.89;30.63
70198;BME280;57582;-34.876;138.628;2023-01-15T02:11:41;101193;;;27.03;30.36
70198;BME280;57582;-34.876;138.628;2023-01-15T02:14:42;101192;;;27.09;30.41
70198;BME280;57582;-34.876;138.628;2023-01-15T02:20:43;101180;;;27.15;31.56
70198;BME280;57582;-34.876;138.628;2023-01-15T02:32:43;101173;;;27.46;32.46
70198;BME280;57582;-34.876;138.628;2023-01-15T02:35:43;101169;;;27.44;30.64
70198;BME280;57582;-34.876;138.628;2023-01-15T02:38:43;101162;;;27.65;30.40
70198;BME280;57582;-34.876;138.628;2023-01-15T02:41:43;101172;;;27.64;29.06
70198;BME280;57582;-34.876;138.628;2023-01-15T02:44:43;101153;;;27.46;29.46
70198;BME280;57582;-34.876;138.628;2023-01-15T02:47:41;101162;;;27.43;30.97
70198;BME280;57582;-34.876;138.628;2023-01-15T02:50:43;101160;;;26.40;30.82
70198;BME280;57582;-34.876;138.628;2023-01-15T02:53:42;101159;;;26.44;33.25
70198;BME280;57582;-34.876;138.628;2023-01-15T02:56:41;101154;;;26.86;32.18
70198;BME280;57582;-34.876;138.628;2023-01-15T02:59:42;101155;;;27.10;31.26
70198;BME280;57582;-34.876;138.628;2023-01-15T03:02:43;101156;;;26.77;29.92
70198;BME280;57582;-34.876;138.628;2023-01-15T03:05:42;101161;;;25.90;34.03
70198;BME280;57582;-34.876;138.628;2023-01-15T03:08:41;101158;;;26.23;32.49
70198;BME280;57582;-34.876;138.628;2023-01-15T03:11:43;101150;;;26.37;31.92
70198;BME280;57582;-34.876;138.628;2023-01-15T03:17:44;101144;;;26.96;32.02
70198;BME280;57582;-34.876;138.628;2023-01-15T03:20:42;101157;;;27.18;32.09
70198;BME280;57582;-34.876;138.628;2023-01-15T03:23:42;101144;;;26.52;30.86
70198;BME280;57582;-34.876;138.628;2023-01-15T03:26:41;101146;;;26.31;33.49
70198;BME280;57582;-34.876;138.628;2023-01-15T03:29:41;101135;;;26.84;29.70
70198;BME280;57582;-34.876;138.628;2023-01-15T03:32:41;101133;;;27.27;30.92
70198;BME280;57582;-34.876;138.628;2023-01-15T03:35:43;101121;;;27.65;29.98
70198;BME280;57582;-34.876;138.628;2023-01-15T03:38:41;101123;;;27.86;29.77
70198;BME280;57582;-34.876;138.628;2023-01-15T03:50:44;101116;;;28.10;29.18
70198;BME280;57582;-34.876;138.628;2023-01-15T03:53:44;101113;;;28.08;28.65
70198;BME280;57582;-34.876;138.628;2023-01-15T03:56:50;101110;;;28.08;29.79
70198;BME280;57582;-34.876;138.628;2023-01-15T03:59:47;101109;;;27.63;28.51
70198;BME280;57582;-34.876;138.628;2023-01-15T04:02:41;101107;;;27.68;29.96
70198;BME280;57582;-34.876;138.628;2023-01-15T04:05:41;101099;;;28.12;30.06
70198;BME280;57582;-34.876;138.628;2023-01-15T04:08:42;101098;;;28.50;29.44
70198;BME280;57582;-34.876;138.628;2023-01-15T04:11:41;101094;;;28.74;29.63
70198;BME280;57582;-34.876;138.628;2023-01-15T04:14:41;101099;;;28.79;29.09
70198;BME280;57582;-34.876;138.628;2023-01-15T04:17:41;101106;;;28.70;28.71
70198;BME280;57582;-34.876;138.628;2023-01-15T04:20:41;101100;;;28.44;28.98
70198;BME280;57582;-34.876;138.628;2023-01-15T04:23:41;101094;;;28.24;29.97
70198;BME280;57582;-34.876;138.628;2023-01-15T04:26:41;101089;;;28.31;29.76
70198;BME280;57582;-34.876;138.628;2023-01-15T04:29:41;101101;;;27.76;29.17
70198;BME280;57582;-34.876;138.628;2023-01-15T04:32:41;101097;;;27.30;29.00
70198;BME280;57582;-34.876;138.628;2023-01-15T04:35:41;101096;;;26.84;29.94
70198;BME280;57582;-34.876;138.628;2023-01-15T04:38:41;101109;;;27.09;31.65
70198;BME280;57582;-34.876;138.628;2023-01-15T04:41:41;101098;;;27.16;30.84
70198;BME280;57582;-34.876;138.628;2023-01-15T04:44:41;101106;;;26.97;29.67
70198;BME280;57582;-34.876;138.628;2023-01-15T04:47:41;101107;;;27.26;30.82
70198;BME280;57582;-34.876;138.628;2023-01-15T04:50:42;101098;;;27.64;30.43
70198;BME280;57582;-34.876;138.628;2023-01-15T04:53:41;101095;;;27.81;29.86
70198;BME280;57582;-34.876;138.628;2023-01-15T04:56:42;101111;;;27.80;30.53
70198;BME280;57582;-34.876;138.628;2023-01-15T04:59:41;101101;;;27.86;30.90
70198;BME280;57582;-34.876;138.628;2023-01-15T05:02:41;101104;;;27.86;31.26
70198;BME280;57582;-34.876;138.628;2023-01-15T05:05:41;101096;;;28.02;30.41
70198;BME280;57582;-34.876;138.628;2023-01-15T05:08:43;101095;;;28.17;30.11
70198;BME280;57582;-34.876;138.628;2023-01-15T05:11:41;101087;;;28.50;29.84
70198;BME280;57582;-34.876;138.628;2023-01-15T05:14:41;101086;;;27.32;31.29
70198;BME280;57582;-34.876;138.628;2023-01-15T05:17:41;101065;;;27.76;31.58
70198;BME280;57582;-34.876;138.628;2023-01-15T05:20:42;101073;;;27.81;30.16
70198;BME280;57582;-34.876;138.628;2023-01-15T05:23:41;101069;;;26.98;31.15
70198;BME280;57582;-34.876;138.628;2023-01-15T05:26:42;101071;;;26.99;30.93
70198;BME280;57582;-34.876;138.628;2023-01-15T05:29:41;101074;;;27.21;31.79
70198;BME280;57582;-34.876;138.628;2023-01-15T05:32:41;101067;;;27.61;30.51
70198;BME280;57582;-34.876;138.628;2023-01-15T05:35:41;101069;;;27.92;30.93
70198;BME280;57582;-34.876;138.628;2023-01-15T05:38:41;101060;;;28.13;30.51
70198;BME280;57582;-34.876;138.628;2023-01-15T05:41:41;101076;;;28.22;29.60
70198;BME280;57582;-34.876;138.628;2023-01-15T05:44:41;101076;;;28.28;29.49
70198;BME280;57582;-34.876;138.628;2023-01-15T05:47:41;101090;;;28.22;30.14
70198;BME280;57582;-34.876;138.628;2023-01-15T05:50:41;101083;;;28.18;30.14
70198;BME280;57582;-34.876;138.628;2023-01-15T05:53:41;101085;;;27.93;30.48
70198;BME280;57582;-34.876;138.628;2023-01-15T05:56:42;101078;;;27.87;30.18
70198;BME280;57582;-34.876;138.628;2023-01-15T05:59:41;101077;;;27.81;29.31
70198;BME280;57582;-34.876;138.628;2023-01-15T06:02:41;101091;;;27.70;29.71
70198;BME280;57582;-34.876;138.628;2023-01-15T06:05:41;101098;;;27.52;31.22
70198;BME280;57582;-34.876;138.628;2023-01-15T06:08:42;101104;;;27.29;31.38
70198;BME280;57582;-34.876;138.628;2023-01-15T06:11:41;101097;;;27.12;31.72
70198;BME280;57582;-34.876;138.628;2023-01-15T06:14:41;101098;;;26.80;32.00
70198;BME280;57582;-34.876;138.628;2023-01-15T06:17:41;101100;;;26.73;32.46
70198;BME280;57582;-34.876;138.628;2023-01-15T06:20:41;101107;;;26.54;32.16
70198;BME280;57582;-34.876;138.628;2023-01-15T06:23:41;101114;;;26.42;32.87
70198;BME280;57582;-34.876;138.628;2023-01-15T06:26:41;101114;;;26.39;32.33
70198;BME280;57582;-34.876;138.628;2023-01-15T06:29:41;101114;;;26.44;32.40
70198;BME280;57582;-34.876;138.628;2023-01-15T06:32:41;101115;;;26.39;32.25
70198;BME280;57582;-34.876;138.628;2023-01-15T06:35:41;101121;;;26.29;32.99
70198;BME280;57582;-34.876;138.628;2023-01-15T06:38:41;101119;;;26.23;32.83
70198;BME280;57582;-34.876;138.628;2023-01-15T06:41:41;101114;;;26.23;33.04
70198;BME280;57582;-34.876;138.628;2023-01-15T06:44:41;101116;;;26.13;33.53
70198;BME280;57582;-34.876;138.628;2023-01-15T06:47:41;101121;;;26.26;33.50
70198;BME280;57582;-34.876;138.628;2023-01-15T06:50:41;101113;;;25.83;33.95
70198;BME280;57582;-34.876;138.628;2023-01-15T06:53:41;101100;;;26.03;34.07
70198;BME280;57582;-34.876;138.628;2023-01-15T06:56:41;101102;;;26.09;33.16
70198;BME280;57582;-34.876;138.628;2023-01-15T06:59:41;101092;;;25.85;33.74
70198;BME280;57582;-34.876;138.628;2023-01-15T07:02:42;101095;;;25.73;33.84
70198;BME280;57582;-34.876;138.628;2023-01-15T07:05:41;101097;;;25.64;33.91
70198;BME280;57582;-34.876;138.628;2023-01-15T07:08:41;101099;;;25.57;34.37
70198;BME280;57582;-34.876;138.628;2023-01-15T07:11:41;101102;;;25.51;34.71
70198;BME280;57582;-34.876;138.628;2023-01-15T07:14:41;101101;;;25.55;34.91
70198;BME280;57582;-34.876;138.628;2023-01-15T07:17:41;101112;;;25.42;35.59
70198;BME280;57582;-34.876;138.628;2023-01-15T07:20:41;101111;;;25.30;35.92
70198;BME280;57582;-34.876;138.628;2023-01-15T07:23:41;101106;;;25.40;35.87
70198;BME280;57582;-34.876;138.628;2023-01-15T07:26:42;101105;;;25.54;35.48
70198;BME280;57582;-34.876;138.628;2023-01-15T07:29:41;101102;;;25.54;35.70
70198;BME280;57582;-34.876;138.628;2023-01-15T07:32:42;101102;;;25.61;35.76
70198;BME280;57582;-34.876;138.628;2023-01-15T07:35:41;101104;;;25.42;35.86
70198;BME280;57582;-34.876;138.628;2023-01-15T07:38:41;101107;;;25.51;35.93
70198;BME280;57582;-34.876;138.628;2023-01-15T07:41:41;101108;;;25.56;35.67
70198;BME280;57582;-34.876;138.628;2023-01-15T07:44:42;101112;;;25.43;36.30
70198;BME280;57582;-34.876;138.628;2023-01-15T07:47:41;101115;;;25.51;35.95
70198;BME280;57582;-34.876;138.628;2023-01-15T07:50:42;101105;;;25.60;35.95
70198;BME280;57582;-34.876;138.628;2023-01-15T07:53:41;101105;;;25.64;35.77
70198;BME280;57582;-34.876;138.628;2023-01-15T07:56:42;101099;;;25.72;36.03
70198;BME280;57582;-34.876;138.628;2023-01-15T07:59:41;101105;;;25.78;35.70
70198;BME280;57582;-34.876;138.628;2023-01-15T08:02:41;101111;;;25.80;35.60
70198;BME280;57582;-34.876;138.628;2023-01-15T08:05:41;101112;;;25.87;35.25
70198;BME280;57582;-34.876;138.628;2023-01-15T08:08:41;101113;;;25.78;34.91
70198;BME280;57582;-34.876;138.628;2023-01-15T08:11:41;101123;;;25.65;35.30
70198;BME280;57582;-34.876;138.628;2023-01-15T08:14:42;101115;;;25.67;35.31
70198;BME280;57582;-34.876;138.628;2023-01-15T08:17:43;101124;;;25.69;35.11
70198;BME280;57582;-34.876;138.628;2023-01-15T08:20:42;101128;;;25.30;35.43
70198;BME280;57582;-34.876;138.628;2023-01-15T08:23:42;101128;;;25.27;35.48
70198;BME280;57582;-34.876;138.628;2023-01-15T08:26:41;101120;;;25.25;35.48
70198;BME280;57582;-34.876;138.628;2023-01-15T08:29:41;101129;;;25.34;35.63
70198;BME280;57582;-34.876;138.628;2023-01-15T08:32:42;101137;;;25.39;35.60
70198;BME280;57582;-34.876;138.628;2023-01-15T08:35:41;101145;;;25.40;35.47
70198;BME280;57582;-34.876;138.628;2023-01-15T08:38:42;101127;;;25.18;35.69
70198;BME280;57582;-34.876;138.628;2023-01-15T08:41:41;101135;;;24.98;36.38
70198;BME280;57582;-34.876;138.628;2023-01-15T08:44:42;101143;;;24.96;36.34
70198;BME280;57582;-34.876;138.628;2023-01-15T08:47:41;101154;;;24.94;36.74
70198;BME280;57582;-34.876;138.628;2023-01-15T08:50:42;101165;;;25.09;36.44
70198;BME280;57582;-34.876;138.628;2023-01-15T08:53:41;101167;;;25.21;36.45
70198;BME280;57582;-34.876;138.628;2023-01-15T08:56:42;101170;;;25.29;36.55
70198;BME280;57582;-34.876;138.628;2023-01-15T08:59:41;101181;;;25.39;36.15
70198;BME280;57582;-34.876;138.628;2023-01-15T09:02:41;101177;;;25.35;36.21
70198;BME280;57582;-34.876;138.628;2023-01-15T09:05:41;101180;;;25.40;36.51
70198;BME280;57582;-34.876;138.628;2023-01-15T09:08:42;101184;;;25.44;36.29
70198;BME280;57582;-34.876;138.628;2023-01-15T09:11:41;101189;;;25.47;36.15
70198;BME280;57582;-34.876;138.628;2023-01-15T09:14:42;101195;;;25.48;36.22
70198;BME280;57582;-34.876;138.628;2023-01-15T09:17:41;101189;;;25.47;36.10
70198;BME280;57582;-34.876;138.628;2023-01-15T09:20:42;101201;;;25.42;36.21
70198;BME280;57582;-34.876;138.628;2023-01-15T09:23:41;101197;;;25.19;36.45
70198;BME280;57582;-34.876;138.628;2023-01-15T09:26:42;101198;;;25.15;36.56
70198;BME280;57582;-34.876;138.628;2023-01-15T09:29:41;101197;;;25.02;36.64
70198;BME280;57582;-34.876;138.628;2023-01-15T09:32:42;101201;;;24.98;36.86
70198;BME280;57582;-34.876;138.628;2023-01-15T09:35:41;101200;;;24.97;37.12
70198;BME280;57582;-34.876;138.628;2023-01-15T09:38:42;101195;;;25.01;36.92
70198;BME280;57582;-34.876;138.628;2023-01-15T09:42:01;101200;;;25.00;36.58
70198;BME280;57582;-34.876;138.628;2023-01-15T09:44:47;101193;;;24.96;36.52
70198;BME280;57582;-34.876;138.628;2023-01-15T09:47:48;101188;;;24.93;36.37
70198;BME280;57582;-34.876;138.628;2023-01-15T09:53:44;101191;;;24.81;36.23
70198;BME280;57582;-34.876;138.628;2023-01-15T09:56:42;101198;;;24.79;36.43
70198;BME280;57582;-34.876;138.628;2023-01-15T09:59:43;101195;;;24.71;36.48
70198;BME280;57582;-34.876;138.628;2023-01-15T10:02:45;101175;;;24.62;36.74
70198;BME280;57582;-34.876;138.628;2023-01-15T10:05:44;101169;;;24.59;37.33
70198;BME280;57582;-34.876;138.628;2023-01-15T10:08:46;101170;;;24.46;37.54
70198;BME280;57582;-34.876;138.628;2023-01-15T10:11:43;101164;;;24.37;37.75
70198;BME280;57582;-34.876;138.628;2023-01-15T10:14:53;101160;;;24.13;38.01
70198;BME280;57582;-34.876;138.628;2023-01-15T10:17:42;101153;;;23.97;38.18
70198;BME280;57582;-34.876;138.628;2023-01-15T10:32:46;101117;;;23.71;38.70
70198;BME280;57582;-34.876;138.628;2023-01-15T10:38:44;101110;;;23.73;38.48
70198;BME280;57582;-34.876;138.628;2023-01-15T10:47:42;101104;;;23.46;38.78
70198;BME280;57582;-34.876;138.628;2023-01-15T10:50:42;101110;;;23.33;38.78
70198;BME280;57582;-34.876;138.628;2023-01-15T10:53:44;101100;;;22.78;39.95
70198;BME280;57582;-34.876;138.628;2023-01-15T10:56:44;101084;;;22.21;41.51
70198;BME280;57582;-34.876;138.628;2023-01-15T10:59:50;101086;;;22.01;41.67
70198;BME280;57582;-34.876;138.628;2023-01-15T11:02:43;101095;;;21.72;41.68
70198;BME280;57582;-34.876;138.628;2023-01-15T11:05:41;101087;;;21.87;41.69
70198;BME280;57582;-34.876;138.628;2023-01-15T11:08:44;101086;;;21.86;41.69
70198;BME280;57582;-34.876;138.628;2023-01-15T11:11:44;101094;;;22.02;41.53
70198;BME280;57582;-34.876;138.628;2023-01-15T11:14:43;101095;;;22.21;41.52
70198;BME280;57582;-34.876;138.628;2023-01-15T11:17:42;101086;;;22.36;41.25
70198;BME280;57582;-34.876;138.628;2023-01-15T11:20:42;101088;;;22.50;40.44
70198;BME280;57582;-34.876;138.628;2023-01-15T11:23:42;101092;;;22.62;40.12
70198;BME280;57582;-34.876;138.628;2023-01-15T11:26:45;101092;;;22.76;39.88
70198;BME280;57582;-34.876;138.628;2023-01-15T11:29:42;101091;;;22.51;40.33
70198;BME280;57582;-34.876;138.628;2023-01-15T11:32:42;101090;;;22.58;39.90
70198;BME280;57582;-34.876;138.628;2023-01-15T11:35:48;101087;;;21.93;40.89
70198;BME280;57582;-34.876;138.628;2023-01-15T11:38:43;101087;;;21.62;41.70
70198;BME280;57582;-34.876;138.628;2023-01-15T11:41:41;101085;;;21.69;41.55
70198;BME280;57582;-34.876;138.628;2023-01-15T11:44:52;101094;;;20.82;43.18
70198;BME280;57582;-34.876;138.628;2023-01-15T11:47:49;101095;;;20.47;44.27
70198;BME280;57582;-34.876;138.628;2023-01-15T11:50:53;101089;;;20.49;44.19
70198;BME280;57582;-34.876;138.628;2023-01-15T11:53:44;101090;;;20.86;43.34
70198;BME280;57582;-34.876;138.628;2023-01-15T11:56:42;101095;;;21.17;42.39
70198;BME280;57582;-34.876;138.628;2023-01-15T11:59:46;101096;;;21.00;42.49
70198;BME280;57582;-34.876;138.628;2023-01-15T12:02:42;101097;;;20.77;42.65
70198;BME280;57582;-34.876;138.628;2023-01-15T12:05:46;101096;;;20.73;43.14
70198;BME280;57582;-34.876;138.628;2023-01-15T12:12:00;101116;;;20.82;42.84
70198;BME280;57582;-34.876;138.628;2023-01-15T12:15:03;101131;;;20.75;42.85
70198;BME280;57582;-34.876;138.628;2023-01-15T12:29:45;101124;;;22.59;40.04
70198;BME280;57582;-34.876;138.628;2023-01-15T12:32:43;101133;;;22.89;39.93
70198;BME280;57582;-34.876;138.628;2023-01-15T12:35:44;101138;;;23.14;38.57
70198;BME280;57582;-34.876;138.628;2023-01-15T12:38:50;101131;;;23.24;37.85
70198;BME280;57582;-34.876;138.628;2023-01-15T12:41:42;101110;;;23.00;37.95
70198;BME280;57582;-34.876;138.628;2023-01-15T12:50:46;101144;;;21.88;40.24
70198;BME280;57582;-34.876;138.628;2023-01-15T12:53:43;101157;;;21.96;40.22
70198;BME280;57582;-34.876;138.628;2023-01-15T12:57:14;101158;;;21.69;40.51
70198;BME280;57582;-34.876;138.628;2023-01-15T12:59:59;101146;;;21.70;40.86
70198;BME280;57582;-34.876;138.628;2023-01-15T13:05:45;101157;;;21.09;42.12
70198;BME280;57582;-34.876;138.628;2023-01-15T13:11:42;101132;;;21.40;41.81
70198;BME280;57582;-34.876;138.628;2023-01-15T13:14:42;101121;;;21.58;41.66
70198;BME280;57582;-34.876;138.628;2023-01-15T13:20:44;101145;;;21.33;42.38
70198;BME280;57582;-34.876;138.628;2023-01-15T13:29:49;101129;;;21.64;41.65
70198;BME280;57582;-34.876;138.628;2023-01-15T13:32:46;101124;;;21.58;41.45
70198;BME280;57582;-34.876;138.628;2023-01-15T13:35:50;101117;;;21.29;41.53
70198;BME280;57582;-34.876;138.628;2023-01-15T13:38:43;101128;;;21.16;42.17
70198;BME280;57582;-34.876;138.628;2023-01-15T13:41:42;101122;;;21.32;41.89
70198;BME280;57582;-34.876;138.628;2023-01-15T13:44:46;101123;;;21.26;42.34
70198;BME280;57582;-34.876;138.628;2023-01-15T13:47:44;101114;;;21.17;42.35
70198;BME280;57582;-34.876;138.628;2023-01-15T13:50:50;101115;;;21.34;42.25
70198;BME280;57582;-34.876;138.628;2023-01-15T13:53:43;101113;;;21.53;41.93
70198;BME280;57582;-34.876;138.628;2023-01-15T13:56:42;101099;;;21.49;41.75
70198;BME280;57582;-34.876;138.628;2023-01-15T13:59:43;101093;;;21.64;41.61
70198;BME280;57582;-34.876;138.628;2023-01-15T14:02:50;101103;;;21.60;40.93
70198;BME280;57582;-34.876;138.628;2023-01-15T14:05:42;101100;;;21.76;41.13
70198;BME280;57582;-34.876;138.628;2023-01-15T14:08:43;101090;;;21.52;41.92
70198;BME280;57582;-34.876;138.628;2023-01-15T14:14:48;101091;;;21.49;42.59
70198;BME280;57582;-34.876;138.628;2023-01-15T14:20:49;101063;;;21.29;43.07
70198;BME280;57582;-34.876;138.628;2023-01-15T14:26:45;101049;;;21.08;42.99
70198;BME280;57582;-34.876;138.628;2023-01-15T14:29:46;101043;;;21.06;43.18
70198;BME280;57582;-34.876;138.628;2023-01-15T14:35:43;101018;;;20.93;43.53
70198;BME280;57582;-34.876;138.628;2023-01-15T14:38:46;101023;;;20.82;43.47
70198;BME280;57582;-34.876;138.628;2023-01-15T14:41:42;101028;;;20.59;44.00
70198;BME280;57582;-34.876;138.628;2023-01-15T14:44:42;101026;;;20.61;44.14
70198;BME280;57582;-34.876;138.628;2023-01-15T14:47:43;101022;;;20.69;44.01
70198;BME280;57582;-34.876;138.628;2023-01-15T14:50:42;101015;;;20.84;43.61
70198;BME280;57582;-34.876;138.628;2023-01-15T14:53:44;100996;;;21.01;43.46
70198;BME280;57582;-34.876;138.628;2023-01-15T14:56:43;100991;;;21.23;42.91
70198;BME280;57582;-34.876;138.628;2023-01-15T14:59:47;100986;;;21.47;42.34
70198;BME280;57582;-34.876;138.628;2023-01-15T15:02:42;100993;;;21.68;42.08
70198;BME280;57582;-34.876;138.628;2023-01-15T15:05:42;100987;;;21.58;42.25
70198;BME280;57582;-34.876;138.628;2023-01-15T15:08:42;100981;;;21.53;42.56
70198;BME280;57582;-34.876;138.628;2023-01-15T15:11:45;100968;;;21.58;42.57
70198;BME280;57582;-34.876;138.628;2023-01-15T15:14:42;100957;;;21.68;42.43
70198;BME280;57582;-34.876;138.628;2023-01-15T15:17:53;100957;;;21.81;42.32
70198;BME280;57582;-34.876;138.628;2023-01-15T15:23:58;100962;;;21.58;42.20
70198;BME280;57582;-34.876;138.628;2023-01-15T15:26:42;100953;;;21.52;42.29
70198;BME280;57582;-34.876;138.628;2023-01-15T15:29:42;100946;;;21.45;42.77
70198;BME280;57582;-34.876;138.628;2023-01-15T15:32:42;100931;;;21.50;42.48
70198;BME280;57582;-34.876;138.628;2023-01-15T15:35:43;100924;;;21.35;42.74
70198;BME280;57582;-34.876;138.628;2023-01-15T15:38:50;100920;;;21.48;42.44
70198;BME280;57582;-34.876;138.628;2023-01-15T15:41:43;100909;;;21.45;42.43
70198;BME280;57582;-34.876;138.628;2023-01-15T15:47:42;100898;;;21.27;41.96
70198;BME280;57582;-34.876;138.628;2023-01-15T15:50:42;100892;;;20.94;42.72
70198;BME280;57582;-34.876;138.628;2023-01-15T15:53:42;100893;;;20.70;43.39
70198;BME280;57582;-34.876;138.628;2023-01-15T15:56:51;100899;;;20.73;43.29
70198;BME280;57582;-34.876;138.628;2023-01-15T15:59:46;100901;;;20.81;43.08
70198;BME280;57582;-34.876;138.628;2023-01-15T16:02:43;100903;;;20.79;42.72
70198;BME280;57582;-34.876;138.628;2023-01-15T16:05:42;100903;;;20.74;41.91
70198;BME280;57582;-34.876;138.628;2023-01-15T16:08:42;100896;;;20.76;41.91
70198;BME280;57582;-34.876;138.628;2023-01-15T16:11:42;100901;;;20.83;41.29
70198;BME280;57582;-34.876;138.628;2023-01-15T16:14:42;100903;;;20.94;41.07
70198;BME280;57582;-34.876;138.628;2023-01-15T16:17:42;100912;;;20.98;40.53
70198;BME280;57582;-34.876;138.628;2023-01-15T16:20:42;100905;;;20.87;40.76
70198;BME280;57582;-34.876;138.628;2023-01-15T16:23:42;100916;;;20.88;40.89
70198;BME280;57582;-34.876;138.628;2023-01-15T16:26:44;100916;;;21.05;40.28
70198;BME280;57582;-34.876;138.628;2023-01-15T16:29:46;100912;;;21.03;40.33
70198;BME280;57582;-34.876;138.628;2023-01-15T16:32:42;100915;;;21.06;40.44
70198;BME280;57582;-34.876;138.628;2023-01-15T16:35:42;100913;;;21.31;40.17
70198;BME280;57582;-34.876;138.628;2023-01-15T16:38:45;100918;;;21.36;39.63
70198;BME280;57582;-34.876;138.628;2023-01-15T16:41:42;100916;;;21.51;39.31
70198;BME280;57582;-34.876;138.628;2023-01-15T16:44:50;100912;;;21.54;39.07
70198;BME280;57582;-34.876;138.628;2023-01-15T16:47:42;100910;;;21.01;39.91
70198;BME280;57582;-34.876;138.628;2023-01-15T16:50:42;100909;;;21.12;39.81
70198;BME280;57582;-34.876;138.628;2023-01-15T16:53:42;100909;;;21.02;39.70
70198;BME280;57582;-34.876;138.628;2023-01-15T17:02:43;100908;;;21.17;38.87
70198;BME280;57582;-34.876;138.628;2023-01-15T17:05:42;100902;;;21.39;39.15
70198;BME280;57582;-34.876;138.628;2023-01-15T17:08:44;100891;;;21.53;38.38
70198;BME280;57582;-34.876;138.628;2023-01-15T17:11:42;100915;;;21.23;38.80
70198;BME280;57582;-34.876;138.628;2023-01-15T17:14:43;100904;;;21.13;39.01
70198;BME280;57582;-34.876;138.628;2023-01-15T17:17:43;100910;;;21.25;38.71
70198;BME280;57582;-34.876;138.628;2023-01-15T17:20:42;100920;;;21.48;38.77
70198;BME280;57582;-34.876;138.628;2023-01-15T17:23:42;100919;;;21.70;38.66
70198;BME280;57582;-34.876;138.628;2023-01-15T17:26:42;100918;;;21.76;38.42
70198;BME280;57582;-34.876;138.628;2023-01-15T17:29:42;100930;;;21.78;38.26
70198;BME280;57582;-34.876;138.628;2023-01-15T17:32:42;100919;;;21.65;38.50